Terminal Aerodrome Forecast
Issued by NWS

Home | Current Version | Previous Version | Text Only | Print | Product List | Glossary On
Versions: 1 2 3 4 5 6 7 8 9 10 11 12 13 14 15 16 17 18 19 20
000
FTUS41 KBTV 180532
TAFMPV
TAF
KMPV 180532Z 1806/1906 18004KT 1 1/2SM -SN BR OVC015
     FM181100 28005KT P6SM VCSH OVC020
     FM181300 31010KT P6SM OVC050
     FM182000 30008KT P6SM SCT090
     FM182300 23004KT P6SM FEW090
     FM190400 00000KT P6SM BKN150=

USA.gov is the U.S. government's official web portal to all federal, state and local government web resources and services.